sensor_id;sensor_type;location;lat;lon;timestamp;temperature;humidity
71237;DHT22;58984;51.960;5.582;2024-01-16T00:00:16;2.50;91.90
71237;DHT22;58984;51.960;5.582;2024-01-16T00:02:42;2.50;91.90
71237;DHT22;58984;51.960;5.582;2024-01-16T00:05:08;2.40;92.20
71237;DHT22;58984;51.960;5.582;2024-01-16T00:07:38;2.40;91.80
71237;DHT22;58984;51.960;5.582;2024-01-16T00:10:04;2.40;91.90
71237;DHT22;58984;51.960;5.582;2024-01-16T00:12:32;2.40;91.80
71237;DHT22;58984;51.960;5.582;2024-01-16T00:14:57;2.40;91.80
71237;DHT22;58984;51.960;5.582;2024-01-16T00:17:23;2.40;91.70
71237;DHT22;58984;51.960;5.582;2024-01-16T00:19:49;2.40;91.80
71237;DHT22;58984;51.960;5.582;2024-01-16T00:22:15;2.40;91.80
71237;DHT22;58984;51.960;5.582;2024-01-16T00:24:40;2.50;91.80
71237;DHT22;58984;51.960;5.582;2024-01-16T00:27:06;2.40;91.70
71237;DHT22;58984;51.960;5.582;2024-01-16T00:29:31;2.40;91.70
71237;DHT22;58984;51.960;5.582;2024-01-16T00:31:57;2.40;91.70
71237;DHT22;58984;51.960;5.582;2024-01-16T00:34:23;2.30;92.10
71237;DHT22;58984;51.960;5.582;2024-01-16T00:36:48;2.30;91.70
71237;DHT22;58984;51.960;5.582;2024-01-16T00:39:14;2.30;91.70
71237;DHT22;58984;51.960;5.582;2024-01-16T00:41:39;2.40;91.70
71237;DHT22;58984;51.960;5.582;2024-01-16T00:44:05;2.40;91.70
71237;DHT22;58984;51.960;5.582;2024-01-16T00:46:31;2.30;91.60
71237;DHT22;58984;51.960;5.582;2024-01-16T00:48:56;2.30;91.60
71237;DHT22;58984;51.960;5.582;2024-01-16T00:51:22;2.40;92.00
71237;DHT22;58984;51.960;5.582;2024-01-16T00:53:47;2.30;91.60
71237;DHT22;58984;51.960;5.582;2024-01-16T00:56:13;2.30;91.60
71237;DHT22;58984;51.960;5.582;2024-01-16T00:58:39;2.30;92.00
71237;DHT22;58984;51.960;5.582;2024-01-16T01:01:04;2.30;91.60
71237;DHT22;58984;51.960;5.582;2024-01-16T01:03:30;2.20;91.60
71237;DHT22;58984;51.960;5.582;2024-01-16T01:05:56;2.20;91.60
71237;DHT22;58984;51.960;5.582;2024-01-16T01:08:21;2.30;91.60
71237;DHT22;58984;51.960;5.582;2024-01-16T01:10:47;2.30;91.60
71237;DHT22;58984;51.960;5.582;2024-01-16T01:13:13;2.20;91.60
71237;DHT22;58984;51.960;5.582;2024-01-16T01:15:38;2.30;91.60
71237;DHT22;58984;51.960;5.582;2024-01-16T01:18:04;2.30;91.60
71237;DHT22;58984;51.960;5.582;2024-01-16T01:20:31;2.30;91.60
71237;DHT22;58984;51.960;5.582;2024-01-16T01:22:57;2.30;91.60
71237;DHT22;58984;51.960;5.582;2024-01-16T01:25:23;2.30;91.60
71237;DHT22;58984;51.960;5.582;2024-01-16T01:27:51;2.20;91.60
71237;DHT22;58984;51.960;5.582;2024-01-16T01:30:17;2.20;91.50
71237;DHT22;58984;51.960;5.582;2024-01-16T01:32:43;2.20;91.60
71237;DHT22;58984;51.960;5.582;2024-01-16T01:35:09;2.30;91.70
71237;DHT22;58984;51.960;5.582;2024-01-16T01:37:37;3.40;92.20
71237;DHT22;58984;51.960;5.582;2024-01-16T01:40:03;2.30;91.60
71237;DHT22;58984;51.960;5.582;2024-01-16T01:42:29;2.20;91.60
71237;DHT22;58984;51.960;5.582;2024-01-16T01:44:55;2.20;91.60
71237;DHT22;58984;51.960;5.582;2024-01-16T01:47:20;2.20;91.80
71237;DHT22;58984;51.960;5.582;2024-01-16T01:49:46;2.20;91.70
71237;DHT22;58984;51.960;5.582;2024-01-16T01:52:12;2.20;91.70
71237;DHT22;58984;51.960;5.582;2024-01-16T01:54:38;2.20;91.70
71237;DHT22;58984;51.960;5.582;2024-01-16T01:57:07;2.20;91.60
71237;DHT22;58984;51.960;5.582;2024-01-16T01:59:33;2.20;91.70
71237;DHT22;58984;51.960;5.582;2024-01-16T02:01:59;2.20;91.40
71237;DHT22;58984;51.960;5.582;2024-01-16T02:04:26;2.20;91.60
71237;DHT22;58984;51.960;5.582;2024-01-16T02:06:53;2.20;91.70
71237;DHT22;58984;51.960;5.582;2024-01-16T02:09:19;2.20;91.70
71237;DHT22;58984;51.960;5.582;2024-01-16T02:11:45;2.20;91.70
71237;DHT22;58984;51.960;5.582;2024-01-16T02:14:11;2.20;91.70
71237;DHT22;58984;51.960;5.582;2024-01-16T02:16:41;2.20;91.70
71237;DHT22;58984;51.960;5.582;2024-01-16T02:19:07;2.20;91.70
71237;DHT22;58984;51.960;5.582;2024-01-16T02:21:39;2.20;91.80
71237;DHT22;58984;51.960;5.582;2024-01-16T02:24:09;2.20;91.80
71237;DHT22;58984;51.960;5.582;2024-01-16T02:26:35;2.20;91.80
71237;DHT22;58984;51.960;5.582;2024-01-16T02:29:02;2.20;91.80
71237;DHT22;58984;51.960;5.582;2024-01-16T02:31:29;2.20;91.80
71237;DHT22;58984;51.960;5.582;2024-01-16T02:33:54;2.20;91.80
71237;DHT22;58984;51.960;5.582;2024-01-16T02:36:20;2.20;91.80
71237;DHT22;58984;51.960;5.582;2024-01-16T02:38:45;2.20;91.80
71237;DHT22;58984;51.960;5.582;2024-01-16T02:41:13;2.20;92.20
71237;DHT22;58984;51.960;5.582;2024-01-16T02:43:39;2.20;91.80
71237;DHT22;58984;51.960;5.582;2024-01-16T02:46:04;2.20;91.80
71237;DHT22;58984;51.960;5.582;2024-01-16T02:48:30;2.20;91.80
71237;DHT22;58984;51.960;5.582;2024-01-16T02:50:56;2.20;91.90
71237;DHT22;58984;51.960;5.582;2024-01-16T02:53:21;2.20;91.90
71237;DHT22;58984;51.960;5.582;2024-01-16T02:55:47;2.20;91.90
71237;DHT22;58984;51.960;5.582;2024-01-16T02:58:12;2.20;92.00
71237;DHT22;58984;51.960;5.582;2024-01-16T03:00:38;2.20;92.00
71237;DHT22;58984;51.960;5.582;2024-01-16T03:03:04;2.20;92.00
71237;DHT22;58984;51.960;5.582;2024-01-16T03:05:30;2.20;91.90
71237;DHT22;58984;51.960;5.582;2024-01-16T03:07:55;2.20;91.90
71237;DHT22;58984;51.960;5.582;2024-01-16T03:10:21;2.20;92.00
71237;DHT22;58984;51.960;5.582;2024-01-16T03:12:46;2.20;92.00
71237;DHT22;58984;51.960;5.582;2024-01-16T03:15:12;2.20;92.00
71237;DHT22;58984;51.960;5.582;2024-01-16T03:17:38;2.20;92.10
71237;DHT22;58984;51.960;5.582;2024-01-16T03:20:04;2.20;92.00
71237;DHT22;58984;51.960;5.582;2024-01-16T03:22:29;2.20;92.00
71237;DHT22;58984;51.960;5.582;2024-01-16T03:24:55;2.20;92.10
71237;DHT22;58984;51.960;5.582;2024-01-16T03:27:20;2.20;92.10
71237;DHT22;58984;51.960;5.582;2024-01-16T03:29:46;2.20;92.10
71237;DHT22;58984;51.960;5.582;2024-01-16T03:32:12;2.20;92.10
71237;DHT22;58984;51.960;5.582;2024-01-16T03:34:37;2.20;92.10
71237;DHT22;58984;51.960;5.582;2024-01-16T03:37:03;2.30;92.10
71237;DHT22;58984;51.960;5.582;2024-01-16T03:39:29;2.20;92.10
71237;DHT22;58984;51.960;5.582;2024-01-16T03:41:55;2.20;92.10
71237;DHT22;58984;51.960;5.582;2024-01-16T03:44:20;2.20;92.40
71237;DHT22;58984;51.960;5.582;2024-01-16T03:46:46;2.20;92.10
71237;DHT22;58984;51.960;5.582;2024-01-16T03:49:11;2.30;92.20
71237;DHT22;58984;51.960;5.582;2024-01-16T03:51:37;2.30;92.10
71237;DHT22;58984;51.960;5.582;2024-01-16T03:54:02;2.20;92.10
71237;DHT22;58984;51.960;5.582;2024-01-16T03:56:28;2.20;92.10
71237;DHT22;58984;51.960;5.582;2024-01-16T03:58:54;2.30;92.20
71237;DHT22;58984;51.960;5.582;2024-01-16T04:01:32;2.30;92.30
71237;DHT22;58984;51.960;5.582;2024-01-16T04:03:58;2.30;92.20
71237;DHT22;58984;51.960;5.582;2024-01-16T04:06:24;2.20;92.20
71237;DHT22;58984;51.960;5.582;2024-01-16T04:08:50;2.20;92.10
71237;DHT22;58984;51.960;5.582;2024-01-16T04:11:15;2.30;92.20
71237;DHT22;58984;51.960;5.582;2024-01-16T04:13:41;2.20;92.20
71237;DHT22;58984;51.960;5.582;2024-01-16T04:16:07;2.20;92.20
71237;DHT22;58984;51.960;5.582;2024-01-16T04:18:36;2.30;92.20
71237;DHT22;58984;51.960;5.582;2024-01-16T04:21:03;2.20;92.20
71237;DHT22;58984;51.960;5.582;2024-01-16T04:23:29;2.30;92.30
71237;DHT22;58984;51.960;5.582;2024-01-16T04:25:54;2.20;92.20
71237;DHT22;58984;51.960;5.582;2024-01-16T04:28:20;2.30;92.20
71237;DHT22;58984;51.960;5.582;2024-01-16T04:30:45;2.20;92.20
71237;DHT22;58984;51.960;5.582;2024-01-16T04:33:11;2.30;92.20
71237;DHT22;58984;51.960;5.582;2024-01-16T04:35:37;2.20;92.20
71237;DHT22;58984;51.960;5.582;2024-01-16T04:38:02;2.30;92.20
71237;DHT22;58984;51.960;5.582;2024-01-16T04:40:28;2.30;92.20
71237;DHT22;58984;51.960;5.582;2024-01-16T04:42:54;2.30;92.30
71237;DHT22;58984;51.960;5.582;2024-01-16T04:45:19;2.20;92.10
71237;DHT22;58984;51.960;5.582;2024-01-16T04:47:45;2.30;92.30
71237;DHT22;58984;51.960;5.582;2024-01-16T04:50:11;2.30;92.30
71237;DHT22;58984;51.960;5.582;2024-01-16T04:52:37;2.20;92.20
71237;DHT22;58984;51.960;5.582;2024-01-16T04:55:03;2.20;92.30
71237;DHT22;58984;51.960;5.582;2024-01-16T04:57:29;2.20;92.20
71237;DHT22;58984;51.960;5.582;2024-01-16T04:59:54;2.30;92.30
71237;DHT22;58984;51.960;5.582;2024-01-16T05:02:20;2.20;92.20
71237;DHT22;58984;51.960;5.582;2024-01-16T05:04:45;2.30;92.30
71237;DHT22;58984;51.960;5.582;2024-01-16T05:07:15;2.30;92.40
71237;DHT22;58984;51.960;5.582;2024-01-16T05:09:40;2.20;92.30
71237;DHT22;58984;51.960;5.582;2024-01-16T05:12:06;2.30;92.40
71237;DHT22;58984;51.960;5.582;2024-01-16T05:14:32;2.30;92.30
71237;DHT22;58984;51.960;5.582;2024-01-16T05:16:57;2.30;92.30
71237;DHT22;58984;51.960;5.582;2024-01-16T05:19:23;2.20;92.20
71237;DHT22;58984;51.960;5.582;2024-01-16T05:21:48;2.30;92.40
71237;DHT22;58984;51.960;5.582;2024-01-16T05:24:14;2.30;92.70
71237;DHT22;58984;51.960;5.582;2024-01-16T05:26:39;2.20;92.40
71237;DHT22;58984;51.960;5.582;2024-01-16T05:29:05;2.30;92.40
71237;DHT22;58984;51.960;5.582;2024-01-16T05:31:31;2.20;92.40
71237;DHT22;58984;51.960;5.582;2024-01-16T05:33:56;2.20;92.30
71237;DHT22;58984;51.960;5.582;2024-01-16T05:36:23;2.30;92.40
71237;DHT22;58984;51.960;5.582;2024-01-16T05:38:49;2.30;92.40
71237;DHT22;58984;51.960;5.582;2024-01-16T05:41:15;2.30;92.40
71237;DHT22;58984;51.960;5.582;2024-01-16T05:43:41;2.20;92.30
71237;DHT22;58984;51.960;5.582;2024-01-16T05:46:07;2.30;92.30
71237;DHT22;58984;51.960;5.582;2024-01-16T05:48:32;2.20;92.30
71237;DHT22;58984;51.960;5.582;2024-01-16T05:50:58;2.30;92.40
71237;DHT22;58984;51.960;5.582;2024-01-16T05:53:23;2.20;92.30
71237;DHT22;58984;51.960;5.582;2024-01-16T05:55:49;2.30;92.80
71237;DHT22;58984;51.960;5.582;2024-01-16T05:58:14;2.30;92.40
71237;DHT22;58984;51.960;5.582;2024-01-16T06:00:40;2.30;92.50
71237;DHT22;58984;51.960;5.582;2024-01-16T06:03:06;2.30;92.50
71237;DHT22;58984;51.960;5.582;2024-01-16T06:05:31;2.20;92.70
71237;DHT22;58984;51.960;5.582;2024-01-16T06:07:57;2.30;92.50
71237;DHT22;58984;51.960;5.582;2024-01-16T06:10:23;2.30;92.40
71237;DHT22;58984;51.960;5.582;2024-01-16T06:12:49;2.20;92.40
71237;DHT22;58984;51.960;5.582;2024-01-16T06:15:14;2.20;92.40
71237;DHT22;58984;51.960;5.582;2024-01-16T06:17:40;2.20;92.40
71237;DHT22;58984;51.960;5.582;2024-01-16T06:20:06;2.20;92.50
71237;DHT22;58984;51.960;5.582;2024-01-16T06:22:32;2.30;92.50
71237;DHT22;58984;51.960;5.582;2024-01-16T06:24:57;2.20;92.40
71237;DHT22;58984;51.960;5.582;2024-01-16T06:27:23;2.30;92.90
71237;DHT22;58984;51.960;5.582;2024-01-16T06:29:49;2.20;92.50
71237;DHT22;58984;51.960;5.582;2024-01-16T06:32:14;2.30;92.60
71237;DHT22;58984;51.960;5.582;2024-01-16T06:34:40;2.30;92.60
71237;DHT22;58984;51.960;5.582;2024-01-16T06:37:05;2.30;92.50
71237;DHT22;58984;51.960;5.582;2024-01-16T06:39:31;2.30;92.70
71237;DHT22;58984;51.960;5.582;2024-01-16T06:41:57;2.30;92.70
71237;DHT22;58984;51.960;5.582;2024-01-16T06:44:22;2.30;92.70
71237;DHT22;58984;51.960;5.582;2024-01-16T06:46:48;2.30;92.60
71237;DHT22;58984;51.960;5.582;2024-01-16T06:49:13;2.30;92.70
71237;DHT22;58984;51.960;5.582;2024-01-16T06:51:39;2.30;92.70
71237;DHT22;58984;51.960;5.582;2024-01-16T06:54:05;2.30;92.60
71237;DHT22;58984;51.960;5.582;2024-01-16T06:56:31;2.30;92.60
71237;DHT22;58984;51.960;5.582;2024-01-16T06:58:56;2.30;92.70
71237;DHT22;58984;51.960;5.582;2024-01-16T07:01:22;2.30;92.70
71237;DHT22;58984;51.960;5.582;2024-01-16T07:03:48;2.30;92.60
71237;DHT22;58984;51.960;5.582;2024-01-16T07:06:14;2.30;92.60
71237;DHT22;58984;51.960;5.582;2024-01-16T07:08:39;2.30;92.70
71237;DHT22;58984;51.960;5.582;2024-01-16T07:11:05;2.30;92.70
71237;DHT22;58984;51.960;5.582;2024-01-16T07:13:34;2.30;92.70
71237;DHT22;58984;51.960;5.582;2024-01-16T07:16:00;2.30;92.60
71237;DHT22;58984;51.960;5.582;2024-01-16T07:18:27;2.30;92.40
71237;DHT22;58984;51.960;5.582;2024-01-16T07:20:53;2.30;92.70
71237;DHT22;58984;51.960;5.582;2024-01-16T07:23:19;2.30;92.60
71237;DHT22;58984;51.960;5.582;2024-01-16T07:25:44;2.30;92.60
71237;DHT22;58984;51.960;5.582;2024-01-16T07:28:10;2.30;92.60
71237;DHT22;58984;51.960;5.582;2024-01-16T07:30:36;2.30;92.60
71237;DHT22;58984;51.960;5.582;2024-01-16T07:33:03;2.20;92.50
71237;DHT22;58984;51.960;5.582;2024-01-16T07:35:28;2.30;92.60
71237;DHT22;58984;51.960;5.582;2024-01-16T07:37:54;2.20;92.50
71237;DHT22;58984;51.960;5.582;2024-01-16T07:40:21;2.30;92.50
71237;DHT22;58984;51.960;5.582;2024-01-16T07:42:46;2.30;92.60
71237;DHT22;58984;51.960;5.582;2024-01-16T07:45:12;2.20;92.60
71237;DHT22;58984;51.960;5.582;2024-01-16T07:47:37;2.30;92.90
71237;DHT22;58984;51.960;5.582;2024-01-16T07:50:04;2.30;92.60
71237;DHT22;58984;51.960;5.582;2024-01-16T07:52:30;2.20;92.60
71237;DHT22;58984;51.960;5.582;2024-01-16T07:54:56;2.30;92.60
71237;DHT22;58984;51.960;5.582;2024-01-16T07:57:21;2.30;92.50
71237;DHT22;58984;51.960;5.582;2024-01-16T07:59:47;2.30;92.50
71237;DHT22;58984;51.960;5.582;2024-01-16T08:02:12;2.30;92.60
71237;DHT22;58984;51.960;5.582;2024-01-16T08:04:41;2.30;92.50
71237;DHT22;58984;51.960;5.582;2024-01-16T08:07:07;2.20;92.50
71237;DHT22;58984;51.960;5.582;2024-01-16T08:09:32;2.30;92.80
71237;DHT22;58984;51.960;5.582;2024-01-16T08:11:58;2.20;92.20
71237;DHT22;58984;51.960;5.582;2024-01-16T08:14:24;2.30;92.60
71237;DHT22;58984;51.960;5.582;2024-01-16T08:16:49;2.20;92.30
71237;DHT22;58984;51.960;5.582;2024-01-16T08:19:15;2.30;92.40
71237;DHT22;58984;51.960;5.582;2024-01-16T08:21:41;2.30;92.40
71237;DHT22;58984;51.960;5.582;2024-01-16T08:24:06;2.20;92.40
71237;DHT22;58984;51.960;5.582;2024-01-16T08:26:32;2.20;92.40
71237;DHT22;58984;51.960;5.582;2024-01-16T08:28:58;2.20;92.40
71237;DHT22;58984;51.960;5.582;2024-01-16T08:31:23;2.30;92.40
71237;DHT22;58984;51.960;5.582;2024-01-16T08:33:49;2.20;92.40
71237;DHT22;58984;51.960;5.582;2024-01-16T08:36:15;2.30;92.30
71237;DHT22;58984;51.960;5.582;2024-01-16T08:38:41;2.20;92.30
71237;DHT22;58984;51.960;5.582;2024-01-16T08:41:07;2.30;92.40
71237;DHT22;58984;51.960;5.582;2024-01-16T08:43:33;2.30;92.40
71237;DHT22;58984;51.960;5.582;2024-01-16T08:45:59;2.30;92.40
71237;DHT22;58984;51.960;5.582;2024-01-16T08:48:24;2.30;92.30
71237;DHT22;58984;51.960;5.582;2024-01-16T08:50:51;2.30;92.40
71237;DHT22;58984;51.960;5.582;2024-01-16T08:53:17;2.30;92.30
71237;DHT22;58984;51.960;5.582;2024-01-16T08:55:42;2.20;92.30
71237;DHT22;58984;51.960;5.582;2024-01-16T08:58:08;2.30;92.30
71237;DHT22;58984;51.960;5.582;2024-01-16T09:00:33;2.30;92.30
71237;DHT22;58984;51.960;5.582;2024-01-16T09:02:59;2.20;92.30
71237;DHT22;58984;51.960;5.582;2024-01-16T09:05:25;2.20;92.30
71237;DHT22;58984;51.960;5.582;2024-01-16T09:07:51;2.30;92.30
71237;DHT22;58984;51.960;5.582;2024-01-16T09:10:18;2.20;92.20
71237;DHT22;58984;51.960;5.582;2024-01-16T09:12:43;2.20;92.20
71237;DHT22;58984;51.960;5.582;2024-01-16T09:15:10;2.20;92.20
71237;DHT22;58984;51.960;5.582;2024-01-16T09:17:37;2.30;92.30
71237;DHT22;58984;51.960;5.582;2024-01-16T09:20:05;2.20;92.20
71237;DHT22;58984;51.960;5.582;2024-01-16T09:22:32;2.30;92.30
71237;DHT22;58984;51.960;5.582;2024-01-16T09:24:57;2.20;92.30
71237;DHT22;58984;51.960;5.582;2024-01-16T09:27:23;2.20;92.30
71237;DHT22;58984;51.960;5.582;2024-01-16T09:29:49;2.30;92.40
71237;DHT22;58984;51.960;5.582;2024-01-16T09:32:14;2.30;92.30
71237;DHT22;58984;51.960;5.582;2024-01-16T09:34:40;2.30;92.30
71237;DHT22;58984;51.960;5.582;2024-01-16T09:37:06;2.30;92.70
71237;DHT22;58984;51.960;5.582;2024-01-16T09:39:31;2.30;92.30
71237;DHT22;58984;51.960;5.582;2024-01-16T09:42:00;2.30;92.40
71237;DHT22;58984;51.960;5.582;2024-01-16T09:44:28;2.30;92.40
71237;DHT22;58984;51.960;5.582;2024-01-16T09:46:55;2.30;92.40
71237;DHT22;58984;51.960;5.582;2024-01-16T09:49:23;2.30;92.40
71237;DHT22;58984;51.960;5.582;2024-01-16T09:51:49;2.40;92.50
71237;DHT22;58984;51.960;5.582;2024-01-16T09:54:15;2.30;92.40
71237;DHT22;58984;51.960;5.582;2024-01-16T09:56:44;2.40;92.50
71237;DHT22;58984;51.960;5.582;2024-01-16T09:59:15;2.40;92.80
71237;DHT22;58984;51.960;5.582;2024-01-16T10:01:42;2.40;92.40
71237;DHT22;58984;51.960;5.582;2024-01-16T10:04:09;2.40;92.50
71237;DHT22;58984;51.960;5.582;2024-01-16T10:06:34;2.40;92.50
71237;DHT22;58984;51.960;5.582;2024-01-16T10:09:02;2.40;92.50
71237;DHT22;58984;51.960;5.582;2024-01-16T10:11:29;2.40;92.40
71237;DHT22;58984;51.960;5.582;2024-01-16T10:13:55;2.50;92.40
71237;DHT22;58984;51.960;5.582;2024-01-16T10:16:21;2.50;92.40
71237;DHT22;58984;51.960;5.582;2024-01-16T10:18:47;2.50;92.40
71237;DHT22;58984;51.960;5.582;2024-01-16T10:21:22;2.60;92.30
71237;DHT22;58984;51.960;5.582;2024-01-16T10:23:48;2.70;92.30
71237;DHT22;58984;51.960;5.582;2024-01-16T10:26:14;2.70;92.20
71237;DHT22;58984;51.960;5.582;2024-01-16T10:28:41;2.70;92.10
71237;DHT22;58984;51.960;5.582;2024-01-16T10:31:12;2.80;92.10
71237;DHT22;58984;51.960;5.582;2024-01-16T10:33:39;2.90;92.00
71237;DHT22;58984;51.960;5.582;2024-01-16T10:36:15;2.90;91.80
71237;DHT22;58984;51.960;5.582;2024-01-16T10:38:45;3.00;91.70
71237;DHT22;58984;51.960;5.582;2024-01-16T10:41:15;3.10;92.30
71237;DHT22;58984;51.960;5.582;2024-01-16T10:43:43;3.10;91.70
71237;DHT22;58984;51.960;5.582;2024-01-16T10:46:14;3.20;91.80
71237;DHT22;58984;51.960;5.582;2024-01-16T10:49:00;3.30;92.20
71237;DHT22;58984;51.960;5.582;2024-01-16T10:51:30;3.30;91.40
71237;DHT22;58984;51.960;5.582;2024-01-16T10:54:05;3.40;91.70
71237;DHT22;58984;51.960;5.582;2024-01-16T10:56:32;3.50;91.90
71237;DHT22;58984;51.960;5.582;2024-01-16T10:59:06;3.60;91.50
71237;DHT22;58984;51.960;5.582;2024-01-16T11:01:37;3.70;91.80
71237;DHT22;58984;51.960;5.582;2024-01-16T11:04:04;3.80;91.40
71237;DHT22;58984;51.960;5.582;2024-01-16T11:06:30;3.90;91.10
71237;DHT22;58984;51.960;5.582;2024-01-16T11:08:57;4.00;91.30
71237;DHT22;58984;51.960;5.582;2024-01-16T11:11:24;4.10;91.20
71237;DHT22;58984;51.960;5.582;2024-01-16T11:13:51;4.20;91.10
71237;DHT22;58984;51.960;5.582;2024-01-16T11:16:17;4.30;91.00
71237;DHT22;58984;51.960;5.582;2024-01-16T11:18:44;4.40;91.30
71237;DHT22;58984;51.960;5.582;2024-01-16T11:21:13;4.40;91.50
71237;DHT22;58984;51.960;5.582;2024-01-16T11:23:39;4.50;91.20
71237;DHT22;58984;51.960;5.582;2024-01-16T11:26:24;4.60;91.00
71237;DHT22;58984;51.960;5.582;2024-01-16T11:28:50;4.70;90.90
71237;DHT22;58984;51.960;5.582;2024-01-16T11:31:36;10.20;64.00
71237;DHT22;58984;51.960;5.582;2024-01-16T11:34:02;10.30;63.10
71237;DHT22;58984;51.960;5.582;2024-01-16T11:36:50;10.50;58.80
71237;DHT22;58984;51.960;5.582;2024-01-16T11:39:23;8.30;71.50
71237;DHT22;58984;51.960;5.582;2024-01-16T11:41:57;7.40;77.40
71237;DHT22;58984;51.960;5.582;2024-01-16T11:44:43;6.90;80.10
71237;DHT22;58984;51.960;5.582;2024-01-16T11:47:15;6.70;81.10
71237;DHT22;58984;51.960;5.582;2024-01-16T11:49:41;6.60;81.90
71237;DHT22;58984;51.960;5.582;2024-01-16T11:52:09;6.50;82.60
71237;DHT22;58984;51.960;5.582;2024-01-16T11:54:38;6.50;82.90
71237;DHT22;58984;51.960;5.582;2024-01-16T12:00:02;6.60;83.10
71237;DHT22;58984;51.960;5.582;2024-01-16T12:02:55;6.60;83.20
71237;DHT22;58984;51.960;5.582;2024-01-16T12:05:24;6.70;83.00
71237;DHT22;58984;51.960;5.582;2024-01-16T12:07:52;6.70;83.00
71237;DHT22;58984;51.960;5.582;2024-01-16T12:10:23;6.80;83.20
71237;DHT22;58984;51.960;5.582;2024-01-16T12:12:51;6.80;83.90
71237;DHT22;58984;51.960;5.582;2024-01-16T12:15:18;6.90;84.40
71237;DHT22;58984;51.960;5.582;2024-01-16T12:18:07;6.90;84.40
71237;DHT22;58984;51.960;5.582;2024-01-16T12:20:37;7.00;84.70
71237;DHT22;58984;51.960;5.582;2024-01-16T12:23:08;7.10;84.90
71237;DHT22;58984;51.960;5.582;2024-01-16T12:25:38;7.10;84.40
71237;DHT22;58984;51.960;5.582;2024-01-16T12:28:05;7.20;84.40
71237;DHT22;58984;51.960;5.582;2024-01-16T12:30:37;7.20;84.50
71237;DHT22;58984;51.960;5.582;2024-01-16T12:33:11;7.20;84.50
71237;DHT22;58984;51.960;5.582;2024-01-16T12:35:40;7.30;84.80
71237;DHT22;58984;51.960;5.582;2024-01-16T12:38:08;7.40;84.60
71237;DHT22;58984;51.960;5.582;2024-01-16T12:40:40;7.40;85.40
71237;DHT22;58984;51.960;5.582;2024-01-16T12:43:09;7.40;85.00
71237;DHT22;58984;51.960;5.582;2024-01-16T12:45:35;7.40;85.10
71237;DHT22;58984;51.960;5.582;2024-01-16T12:48:02;7.40;85.10
71237;DHT22;58984;51.960;5.582;2024-01-16T12:50:32;7.40;84.70
71237;DHT22;58984;51.960;5.582;2024-01-16T12:53:21;7.30;85.30
71237;DHT22;58984;51.960;5.582;2024-01-16T12:56:00;7.20;85.30
71237;DHT22;58984;51.960;5.582;2024-01-16T12:58:36;7.20;86.20
71237;DHT22;58984;51.960;5.582;2024-01-16T13:04:21;7.10;85.50
71237;DHT22;58984;51.960;5.582;2024-01-16T13:06:47;7.20;85.90
71237;DHT22;58984;51.960;5.582;2024-01-16T13:09:13;7.20;84.80
71237;DHT22;58984;51.960;5.582;2024-01-16T13:11:54;7.30;85.20
71237;DHT22;58984;51.960;5.582;2024-01-16T13:14:21;7.30;85.70
71237;DHT22;58984;51.960;5.582;2024-01-16T13:16:51;7.40;86.00
71237;DHT22;58984;51.960;5.582;2024-01-16T13:19:21;7.40;85.40
71237;DHT22;58984;51.960;5.582;2024-01-16T13:21:48;7.50;85.30
71237;DHT22;58984;51.960;5.582;2024-01-16T13:24:14;7.60;85.30
71237;DHT22;58984;51.960;5.582;2024-01-16T13:26:40;7.60;85.60
71237;DHT22;58984;51.960;5.582;2024-01-16T13:29:06;7.70;85.90
71237;DHT22;58984;51.960;5.582;2024-01-16T13:31:34;7.70;84.70
71237;DHT22;58984;51.960;5.582;2024-01-16T13:34:00;7.70;85.90
71237;DHT22;58984;51.960;5.582;2024-01-16T13:36:29;7.80;86.20
71237;DHT22;58984;51.960;5.582;2024-01-16T13:38:55;7.80;85.40
71237;DHT22;58984;51.960;5.582;2024-01-16T13:41:21;7.80;86.20
71237;DHT22;58984;51.960;5.582;2024-01-16T13:43:47;7.90;85.70
71237;DHT22;58984;51.960;5.582;2024-01-16T13:46:22;7.90;85.70
71237;DHT22;58984;51.960;5.582;2024-01-16T13:48:48;7.90;85.90
71237;DHT22;58984;51.960;5.582;2024-01-16T13:51:14;7.90;86.40
71237;DHT22;58984;51.960;5.582;2024-01-16T13:53:42;7.90;86.00
71237;DHT22;58984;51.960;5.582;2024-01-16T13:56:08;7.90;86.60
71237;DHT22;58984;51.960;5.582;2024-01-16T13:58:37;7.90;85.80
71237;DHT22;58984;51.960;5.582;2024-01-16T14:01:03;8.00;85.90
71237;DHT22;58984;51.960;5.582;2024-01-16T14:03:32;8.00;86.10
71237;DHT22;58984;51.960;5.582;2024-01-16T14:05:58;8.00;86.30
71237;DHT22;58984;51.960;5.582;2024-01-16T14:08:24;8.00;86.20
71237;DHT22;58984;51.960;5.582;2024-01-16T14:10:50;8.00;86.10
71237;DHT22;58984;51.960;5.582;2024-01-16T14:13:16;8.10;84.50
71237;DHT22;58984;51.960;5.582;2024-01-16T14:15:42;8.10;86.60
71237;DHT22;58984;51.960;5.582;2024-01-16T14:18:08;8.10;86.30
71237;DHT22;58984;51.960;5.582;2024-01-16T14:20:39;8.10;86.20
71237;DHT22;58984;51.960;5.582;2024-01-16T14:23:05;8.10;87.00
71237;DHT22;58984;51.960;5.582;2024-01-16T14:25:31;8.00;86.40
71237;DHT22;58984;51.960;5.582;2024-01-16T14:28:02;8.00;86.90
71237;DHT22;58984;51.960;5.582;2024-01-16T14:30:35;8.00;86.80
71237;DHT22;58984;51.960;5.582;2024-01-16T14:33:01;8.00;87.00
71237;DHT22;58984;51.960;5.582;2024-01-16T14:35:27;7.90;87.30
71237;DHT22;58984;51.960;5.582;2024-01-16T14:37:53;7.90;87.00
71237;DHT22;58984;51.960;5.582;2024-01-16T14:40:21;7.90;87.40
71237;DHT22;58984;51.960;5.582;2024-01-16T14:42:52;7.80;87.30
71237;DHT22;58984;51.960;5.582;2024-01-16T14:45:24;7.80;86.90
71237;DHT22;58984;51.960;5.582;2024-01-16T14:47:50;7.70;87.20
71237;DHT22;58984;51.960;5.582;2024-01-16T14:50:17;7.60;87.00
71237;DHT22;58984;51.960;5.582;2024-01-16T14:52:50;7.60;86.80
71237;DHT22;58984;51.960;5.582;2024-01-16T14:55:17;7.40;86.70
71237;DHT22;58984;51.960;5.582;2024-01-16T14:57:43;7.40;86.20
71237;DHT22;58984;51.960;5.582;2024-01-16T15:00:16;7.30;86.10
71237;DHT22;58984;51.960;5.582;2024-01-16T15:02:52;7.20;85.80
71237;DHT22;58984;51.960;5.582;2024-01-16T15:05:21;7.10;84.20
71237;DHT22;58984;51.960;5.582;2024-01-16T15:07:47;7.00;84.50
71237;DHT22;58984;51.960;5.582;2024-01-16T15:10:15;6.90;84.50
71237;DHT22;58984;51.960;5.582;2024-01-16T15:12:46;6.80;83.80
71237;DHT22;58984;51.960;5.582;2024-01-16T15:15:13;6.70;82.90
71237;DHT22;58984;51.960;5.582;2024-01-16T15:17:43;6.60;82.80
71237;DHT22;58984;51.960;5.582;2024-01-16T15:20:10;6.50;82.30
71237;DHT22;58984;51.960;5.582;2024-01-16T15:22:43;6.40;82.60
71237;DHT22;58984;51.960;5.582;2024-01-16T15:25:16;6.30;81.60
71237;DHT22;58984;51.960;5.582;2024-01-16T15:27:45;6.30;82.30
71237;DHT22;58984;51.960;5.582;2024-01-16T15:30:12;6.20;81.30
71237;DHT22;58984;51.960;5.582;2024-01-16T15:32:39;6.10;81.80
71237;DHT22;58984;51.960;5.582;2024-01-16T15:35:05;6.10;80.60
71237;DHT22;58984;51.960;5.582;2024-01-16T15:37:34;6.00;80.70
71237;DHT22;58984;51.960;5.582;2024-01-16T15:40:00;5.90;81.00
71237;DHT22;58984;51.960;5.582;2024-01-16T15:42:27;5.80;80.10
71237;DHT22;58984;51.960;5.582;2024-01-16T15:44:53;5.80;79.80
71237;DHT22;58984;51.960;5.582;2024-01-16T15:47:22;5.70;80.90
71237;DHT22;58984;51.960;5.582;2024-01-16T15:49:47;5.70;80.90